sensor_id;sensor_type;location;lat;lon;timestamp;P1;P2;P0
35654;PMS1003;21773;50.010;19.972;2023-02-26T00:02:54;19.50;18.50;16.50
35654;PMS1003;21773;50.010;19.972;2023-02-26T00:05:59;19.75;19.50;17.50
35654;PMS1003;21773;50.010;19.972;2023-02-26T00:09:03;19.00;17.50;15.50
35654;PMS1003;21773;50.010;19.972;2023-02-26T00:12:09;25.00;23.00;20.00
35654;PMS1003;21773;50.010;19.972;2023-02-26T00:15:14;20.60;20.00;18.00
35654;PMS1003;21773;50.010;19.972;2023-02-26T00:18:19;19.40;18.60;16.00
35654;PMS1003;21773;50.010;19.972;2023-02-26T00:21:24;15.00;14.00;13.00
35654;PMS1003;21773;50.010;19.972;2023-02-26T00:24:28;13.60;12.80;11.20
35654;PMS1003;21773;50.010;19.972;2023-02-26T00:27:32;11.60;11.20;10.80
35654;PMS1003;21773;50.010;19.972;2023-02-26T00:30:35;14.25;13.00;11.25
35654;PMS1003;21773;50.010;19.972;2023-02-26T00:33:39;14.00;12.40;12.00
35654;PMS1003;21773;50.010;19.972;2023-02-26T00:36:47;11.00;11.00;11.00
35654;PMS1003;21773;50.010;19.972;2023-02-26T00:39:59;9.00;8.00;7.00
35654;PMS1003;21773;50.010;19.972;2023-02-26T00:43:14;11.50;10.50;9.50
35654;PMS1003;21773;50.010;19.972;2023-02-26T00:46:20;11.00;9.00;8.00
35654;PMS1003;21773;50.010;19.972;2023-02-26T00:49:36;11.00;10.00;9.00
35654;PMS1003;21773;50.010;19.972;2023-02-26T00:52:55;11.60;9.00;9.00
35654;PMS1003;21773;50.010;19.972;2023-02-26T00:56:05;9.60;8.00;7.20
35654;PMS1003;21773;50.010;19.972;2023-02-26T00:59:09;11.00;11.00;10.40
35654;PMS1003;21773;50.010;19.972;2023-02-26T01:02:12;11.33;11.00;10.00
35654;PMS1003;21773;50.010;19.972;2023-02-26T01:05:16;13.40;13.00;12.00
35654;PMS1003;21773;50.010;19.972;2023-02-26T01:08:23;12.40;11.60;11.00
35654;PMS1003;21773;50.010;19.972;2023-02-26T01:11:34;20.00;18.00;15.40
35654;PMS1003;21773;50.010;19.972;2023-02-26T01:14:39;17.60;16.60;15.00
35654;PMS1003;21773;50.010;19.972;2023-02-26T01:17:43;18.00;18.00;16.00
35654;PMS1003;21773;50.010;19.972;2023-02-26T01:20:52;20.00;18.40;16.00
35654;PMS1003;21773;50.010;19.972;2023-02-26T01:24:00;19.00;17.75;16.00
35654;PMS1003;21773;50.010;19.972;2023-02-26T01:27:08;23.00;20.00;17.00
35654;PMS1003;21773;50.010;19.972;2023-02-26T01:30:12;20.60;19.60;17.40
35654;PMS1003;21773;50.010;19.972;2023-02-26T01:33:18;16.00;15.00;13.60
35654;PMS1003;21773;50.010;19.972;2023-02-26T01:36:29;15.00;14.00;13.00
35654;PMS1003;21773;50.010;19.972;2023-02-26T01:39:41;14.00;13.40;13.00
35654;PMS1003;21773;50.010;19.972;2023-02-26T01:42:50;11.50;11.25;10.25
35654;PMS1003;21773;50.010;19.972;2023-02-26T01:46:00;13.00;12.25;11.00
35654;PMS1003;21773;50.010;19.972;2023-02-26T01:49:11;11.80;10.80;10.20
35654;PMS1003;21773;50.010;19.972;2023-02-26T01:55:56;7.80;7.80;7.00
35654;PMS1003;21773;50.010;19.972;2023-02-26T01:59:03;12.80;11.80;10.80
35654;PMS1003;21773;50.010;19.972;2023-02-26T02:02:09;10.50;9.50;9.00
35654;PMS1003;21773;50.010;19.972;2023-02-26T02:05:16;12.25;11.00;10.00
35654;PMS1003;21773;50.010;19.972;2023-02-26T02:08:24;12.80;11.80;10.80
35654;PMS1003;21773;50.010;19.972;2023-02-26T02:11:29;11.00;11.00;10.00
35654;PMS1003;21773;50.010;19.972;2023-02-26T02:14:38;12.00;12.00;11.00
35654;PMS1003;21773;50.010;19.972;2023-02-26T02:17:49;10.25;10.00;8.25
35654;PMS1003;21773;50.010;19.972;2023-02-26T02:21:08;11.20;10.00;9.00
35654;PMS1003;21773;50.010;19.972;2023-02-26T02:24:51;11.25;10.25;9.25
35654;PMS1003;21773;50.010;19.972;2023-02-26T02:28:13;12.00;11.20;10.00
35654;PMS1003;21773;50.010;19.972;2023-02-26T02:31:32;11.00;9.20;9.00
35654;PMS1003;21773;50.010;19.972;2023-02-26T02:34:42;12.00;11.00;9.60
35654;PMS1003;21773;50.010;19.972;2023-02-26T02:37:52;12.00;10.00;9.00
35654;PMS1003;21773;50.010;19.972;2023-02-26T02:41:04;14.00;14.00;13.00
35654;PMS1003;21773;50.010;19.972;2023-02-26T02:44:10;14.40;13.00;11.40
35654;PMS1003;21773;50.010;19.972;2023-02-26T02:47:19;14.60;12.00;10.60
35654;PMS1003;21773;50.010;19.972;2023-02-26T02:50:26;12.00;11.60;10.60
35654;PMS1003;21773;50.010;19.972;2023-02-26T02:53:35;13.00;12.00;11.00
35654;PMS1003;21773;50.010;19.972;2023-02-26T02:56:44;14.00;14.00;12.50
35654;PMS1003;21773;50.010;19.972;2023-02-26T02:59:53;13.50;13.00;11.50
35654;PMS1003;21773;50.010;19.972;2023-02-26T03:03:04;14.00;13.00;11.00
35654;PMS1003;21773;50.010;19.972;2023-02-26T03:06:15;13.00;12.00;11.40
35654;PMS1003;21773;50.010;19.972;2023-02-26T03:09:22;14.00;14.00;13.00
35654;PMS1003;21773;50.010;19.972;2023-02-26T03:12:29;15.60;14.00;13.00
35654;PMS1003;21773;50.010;19.972;2023-02-26T03:15:35;15.40;15.00;14.00
35654;PMS1003;21773;50.010;19.972;2023-02-26T03:18:47;14.40;14.40;13.00
35654;PMS1003;21773;50.010;19.972;2023-02-26T03:21:56;13.75;12.75;10.75
35654;PMS1003;21773;50.010;19.972;2023-02-26T03:25:28;10.00;9.80;8.80
35654;PMS1003;21773;50.010;19.972;2023-02-26T03:28:37;9.00;8.00;7.00
35654;PMS1003;21773;50.010;19.972;2023-02-26T03:31:46;10.50;10.00;9.25
35654;PMS1003;21773;50.010;19.972;2023-02-26T03:34:59;10.00;9.60;8.00
35654;PMS1003;21773;50.010;19.972;2023-02-26T03:38:08;10.00;9.00;8.00
35654;PMS1003;21773;50.010;19.972;2023-02-26T03:41:19;8.00;8.00;7.60
35654;PMS1003;21773;50.010;19.972;2023-02-26T03:44:27;9.80;9.80;9.20
35654;PMS1003;21773;50.010;19.972;2023-02-26T03:47:34;7.75;7.25;7.00
35654;PMS1003;21773;50.010;19.972;2023-02-26T03:50:41;9.80;9.00;8.60
35654;PMS1003;21773;50.010;19.972;2023-02-26T03:54:14;10.60;10.60;9.60
35654;PMS1003;21773;50.010;19.972;2023-02-26T03:57:34;11.00;10.50;9.50
35654;PMS1003;21773;50.010;19.972;2023-02-26T04:00:53;8.00;8.00;8.00
35654;PMS1003;21773;50.010;19.972;2023-02-26T04:04:02;8.60;8.60;7.60
35654;PMS1003;21773;50.010;19.972;2023-02-26T04:07:11;7.80;7.00;6.80
35654;PMS1003;21773;50.010;19.972;2023-02-26T04:10:17;8.00;7.50;7.00
35654;PMS1003;21773;50.010;19.972;2023-02-26T04:13:23;7.00;7.00;7.00
35654;PMS1003;21773;50.010;19.972;2023-02-26T04:16:29;8.50;7.50;7.00
35654;PMS1003;21773;50.010;19.972;2023-02-26T04:19:33;9.00;8.40;8.00
35654;PMS1003;21773;50.010;19.972;2023-02-26T04:22:38;6.20;6.00;6.00
35654;PMS1003;21773;50.010;19.972;2023-02-26T04:25:41;7.75;7.75;7.50
35654;PMS1003;21773;50.010;19.972;2023-02-26T04:28:46;9.00;9.00;9.00
35654;PMS1003;21773;50.010;19.972;2023-02-26T04:31:49;8.00;8.00;8.00
35654;PMS1003;21773;50.010;19.972;2023-02-26T04:34:53;7.00;6.00;6.00
35654;PMS1003;21773;50.010;19.972;2023-02-26T04:37:58;6.00;5.00;4.00
35654;PMS1003;21773;50.010;19.972;2023-02-26T04:41:02;6.25;6.25;6.25
35654;PMS1003;21773;50.010;19.972;2023-02-26T04:44:05;6.75;6.75;6.00
35654;PMS1003;21773;50.010;19.972;2023-02-26T04:47:11;6.40;6.00;6.00
35654;PMS1003;21773;50.010;19.972;2023-02-26T04:50:16;6.00;6.00;6.00
35654;PMS1003;21773;50.010;19.972;2023-02-26T04:53:23;7.80;7.80;7.00
35654;PMS1003;21773;50.010;19.972;2023-02-26T04:56:26;7.00;6.00;5.50
35654;PMS1003;21773;50.010;19.972;2023-02-26T04:59:30;5.00;5.00;5.00
35654;PMS1003;21773;50.010;19.972;2023-02-26T05:02:34;8.00;7.50;7.00
35654;PMS1003;21773;50.010;19.972;2023-02-26T05:05:38;9.75;9.00;9.00
35654;PMS1003;21773;50.010;19.972;2023-02-26T05:08:43;7.00;6.25;5.00
35654;PMS1003;21773;50.010;19.972;2023-02-26T05:11:46;8.00;8.00;7.60
35654;PMS1003;21773;50.010;19.972;2023-02-26T05:14:50;4.80;4.80;3.80
35654;PMS1003;21773;50.010;19.972;2023-02-26T05:17:53;6.20;6.20;5.80
35654;PMS1003;21773;50.010;19.972;2023-02-26T05:20:56;7.00;7.00;7.00
35654;PMS1003;21773;50.010;19.972;2023-02-26T05:24:02;8.00;7.00;7.00
35654;PMS1003;21773;50.010;19.972;2023-02-26T05:27:06;8.50;8.00;8.00
35654;PMS1003;21773;50.010;19.972;2023-02-26T05:30:14;6.60;6.00;5.00
35654;PMS1003;21773;50.010;19.972;2023-02-26T05:33:18;6.00;6.00;5.20
35654;PMS1003;21773;50.010;19.972;2023-02-26T05:36:22;6.00;6.00;6.00
35654;PMS1003;21773;50.010;19.972;2023-02-26T05:39:27;7.00;6.00;6.00
35654;PMS1003;21773;50.010;19.972;2023-02-26T05:42:30;6.00;6.00;6.00
35654;PMS1003;21773;50.010;19.972;2023-02-26T05:45:34;4.00;4.00;4.00
35654;PMS1003;21773;50.010;19.972;2023-02-26T05:48:37;7.00;7.00;7.00
35654;PMS1003;21773;50.010;19.972;2023-02-26T05:51:41;7.50;7.00;6.00
35654;PMS1003;21773;50.010;19.972;2023-02-26T05:54:46;8.00;7.25;7.25
35654;PMS1003;21773;50.010;19.972;2023-02-26T05:57:49;5.00;5.00;5.00
35654;PMS1003;21773;50.010;19.972;2023-02-26T06:00:53;7.00;6.20;6.00
35654;PMS1003;21773;50.010;19.972;2023-02-26T06:03:56;6.80;6.20;6.00
35654;PMS1003;21773;50.010;19.972;2023-02-26T06:06:59;8.60;8.60;8.40
35654;PMS1003;21773;50.010;19.972;2023-02-26T06:10:05;9.00;8.00;7.50
35654;PMS1003;21773;50.010;19.972;2023-02-26T06:13:10;7.00;7.00;6.25
35654;PMS1003;21773;50.010;19.972;2023-02-26T06:16:13;9.00;8.25;8.25
35654;PMS1003;21773;50.010;19.972;2023-02-26T06:19:17;9.00;8.50;8.00
35654;PMS1003;21773;50.010;19.972;2023-02-26T06:22:22;10.40;10.00;9.00
35654;PMS1003;21773;50.010;19.972;2023-02-26T06:25:27;9.50;9.50;9.00
35654;PMS1003;21773;50.010;19.972;2023-02-26T06:28:30;7.00;7.00;7.00
35654;PMS1003;21773;50.010;19.972;2023-02-26T06:31:33;9.00;8.40;8.00
35654;PMS1003;21773;50.010;19.972;2023-02-26T06:34:36;8.50;8.50;8.50
35654;PMS1003;21773;50.010;19.972;2023-02-26T06:37:41;8.25;7.00;7.00
35654;PMS1003;21773;50.010;19.972;2023-02-26T06:40:45;7.00;7.00;6.80
35654;PMS1003;21773;50.010;19.972;2023-02-26T06:43:49;8.25;8.00;7.25
35654;PMS1003;21773;50.010;19.972;2023-02-26T06:46:52;7.50;7.25;7.25
35654;PMS1003;21773;50.010;19.972;2023-02-26T06:49:56;8.60;8.60;8.00
35654;PMS1003;21773;50.010;19.972;2023-02-26T06:52:59;8.40;8.00;7.00
35654;PMS1003;21773;50.010;19.972;2023-02-26T06:56:04;12.40;12.40;12.00
35654;PMS1003;21773;50.010;19.972;2023-02-26T06:59:08;8.00;8.00;7.50
35654;PMS1003;21773;50.010;19.972;2023-02-26T07:02:13;8.25;8.00;7.25
35654;PMS1003;21773;50.010;19.972;2023-02-26T07:05:19;10.00;9.00;9.00
35654;PMS1003;21773;50.010;19.972;2023-02-26T07:08:22;8.00;7.25;7.25
35654;PMS1003;21773;50.010;19.972;2023-02-26T07:11:27;10.00;9.00;9.00
35654;PMS1003;21773;50.010;19.972;2023-02-26T07:14:30;8.00;7.00;7.00
35654;PMS1003;21773;50.010;19.972;2023-02-26T07:17:34;8.00;8.00;7.80
35654;PMS1003;21773;50.010;19.972;2023-02-26T07:20:38;6.20;6.20;6.00
35654;PMS1003;21773;50.010;19.972;2023-02-26T07:23:41;7.40;6.40;6.00
35654;PMS1003;21773;50.010;19.972;2023-02-26T07:26:46;10.00;10.00;9.00
35654;PMS1003;21773;50.010;19.972;2023-02-26T07:29:49;8.80;8.00;7.80
35654;PMS1003;21773;50.010;19.972;2023-02-26T07:32:52;7.60;7.00;6.00
35654;PMS1003;21773;50.010;19.972;2023-02-26T07:35:56;9.60;8.60;8.00
35654;PMS1003;21773;50.010;19.972;2023-02-26T07:38:59;8.75;8.75;8.00
35654;PMS1003;21773;50.010;19.972;2023-02-26T07:42:04;8.00;7.75;7.00
35654;PMS1003;21773;50.010;19.972;2023-02-26T07:45:08;8.00;8.00;7.00
35654;PMS1003;21773;50.010;19.972;2023-02-26T07:48:12;6.00;6.00;6.00
35654;PMS1003;21773;50.010;19.972;2023-02-26T07:51:18;9.00;8.00;7.00
35654;PMS1003;21773;50.010;19.972;2023-02-26T07:54:21;10.00;9.00;8.00
35654;PMS1003;21773;50.010;19.972;2023-02-26T07:57:26;7.00;7.00;6.00
35654;PMS1003;21773;50.010;19.972;2023-02-26T08:00:29;6.60;6.00;5.00
35654;PMS1003;21773;50.010;19.972;2023-02-26T08:03:32;8.00;8.00;8.00
35654;PMS1003;21773;50.010;19.972;2023-02-26T08:06:36;5.00;4.00;4.00
35654;PMS1003;21773;50.010;19.972;2023-02-26T08:09:39;7.00;7.00;6.00
35654;PMS1003;21773;50.010;19.972;2023-02-26T08:12:44;4.00;4.00;4.00
35654;PMS1003;21773;50.010;19.972;2023-02-26T08:15:47;6.00;6.00;5.00
35654;PMS1003;21773;50.010;19.972;2023-02-26T08:18:51;6.00;6.00;5.40
35654;PMS1003;21773;50.010;19.972;2023-02-26T08:21:54;5.40;5.40;5.00
35654;PMS1003;21773;50.010;19.972;2023-02-26T08:24:57;4.75;4.75;4.00
35654;PMS1003;21773;50.010;19.972;2023-02-26T08:28:02;6.00;6.00;6.00
35654;PMS1003;21773;50.010;19.972;2023-02-26T08:31:06;6.00;6.00;5.00
35654;PMS1003;21773;50.010;19.972;2023-02-26T08:34:09;6.00;5.20;5.00
35654;PMS1003;21773;50.010;19.972;2023-02-26T08:37:13;6.00;6.00;5.20
35654;PMS1003;21773;50.010;19.972;2023-02-26T08:40:17;5.33;5.33;4.67
35654;PMS1003;21773;50.010;19.972;2023-02-26T08:43:21;6.00;5.40;5.40
35654;PMS1003;21773;50.010;19.972;2023-02-26T08:46:25;7.00;7.00;6.00
35654;PMS1003;21773;50.010;19.972;2023-02-26T08:49:29;8.00;6.40;6.00
35654;PMS1003;21773;50.010;19.972;2023-02-26T08:52:33;8.40;8.40;8.00
35654;PMS1003;21773;50.010;19.972;2023-02-26T08:55:36;8.25;8.25;8.25
35654;PMS1003;21773;50.010;19.972;2023-02-26T08:58:41;8.00;7.00;6.00
35654;PMS1003;21773;50.010;19.972;2023-02-26T09:01:45;8.00;8.00;7.40
35654;PMS1003;21773;50.010;19.972;2023-02-26T09:04:48;5.00;4.00;4.00
35654;PMS1003;21773;50.010;19.972;2023-02-26T09:07:51;6.00;5.60;5.60
35654;PMS1003;21773;50.010;19.972;2023-02-26T09:10:58;7.20;6.00;6.00
35654;PMS1003;21773;50.010;19.972;2023-02-26T09:14:03;8.00;6.60;6.00
35654;PMS1003;21773;50.010;19.972;2023-02-26T09:17:07;8.00;6.80;6.00
35654;PMS1003;21773;50.010;19.972;2023-02-26T09:20:11;6.25;6.00;5.25
35654;PMS1003;21773;50.010;19.972;2023-02-26T09:23:15;6.00;6.00;5.20
35654;PMS1003;21773;50.010;19.972;2023-02-26T09:26:18;7.20;7.20;6.80
35654;PMS1003;21773;50.010;19.972;2023-02-26T09:29:23;5.25;5.00;5.00
35654;PMS1003;21773;50.010;19.972;2023-02-26T09:32:26;5.80;5.20;5.00
35654;PMS1003;21773;50.010;19.972;2023-02-26T09:35:30;7.00;7.00;6.00
35654;PMS1003;21773;50.010;19.972;2023-02-26T09:38:33;7.00;6.40;5.60
35654;PMS1003;21773;50.010;19.972;2023-02-26T09:41:39;6.60;6.60;6.00
35654;PMS1003;21773;50.010;19.972;2023-02-26T09:44:47;5.00;5.00;5.00
35654;PMS1003;21773;50.010;19.972;2023-02-26T09:47:52;4.25;4.25;4.00
35654;PMS1003;21773;50.010;19.972;2023-02-26T09:50:57;6.00;6.00;6.00
35654;PMS1003;21773;50.010;19.972;2023-02-26T09:54:02;6.20;6.20;5.80
35654;PMS1003;21773;50.010;19.972;2023-02-26T09:57:19;6.00;6.00;5.60
35654;PMS1003;21773;50.010;19.972;2023-02-26T10:00:31;7.00;6.60;5.60
35654;PMS1003;21773;50.010;19.972;2023-02-26T10:03:43;7.00;7.00;6.00
35654;PMS1003;21773;50.010;19.972;2023-02-26T10:07:03;6.00;5.40;5.00
35654;PMS1003;21773;50.010;19.972;2023-02-26T10:10:18;6.40;6.00;6.00
35654;PMS1003;21773;50.010;19.972;2023-02-26T10:13:34;8.00;6.00;5.00
35654;PMS1003;21773;50.010;19.972;2023-02-26T10:17:01;6.00;6.00;5.00
35654;PMS1003;21773;50.010;19.972;2023-02-26T10:20:17;6.20;6.20;5.80
35654;PMS1003;21773;50.010;19.972;2023-02-26T10:23:27;5.20;5.00;4.80
35654;PMS1003;21773;50.010;19.972;2023-02-26T10:26:38;6.00;6.00;5.00
35654;PMS1003;21773;50.010;19.972;2023-02-26T10:29:47;7.60;6.60;5.60
35654;PMS1003;21773;50.010;19.972;2023-02-26T10:33:02;5.25;5.25;5.25
35654;PMS1003;21773;50.010;19.972;2023-02-26T10:36:16;4.25;4.25;3.25
35654;PMS1003;21773;50.010;19.972;2023-02-26T10:39:28;5.60;5.00;5.00
35654;PMS1003;21773;50.010;19.972;2023-02-26T10:42:40;5.00;5.00;4.60
35654;PMS1003;21773;50.010;19.972;2023-02-26T10:45:53;3.75;3.75;3.75
35654;PMS1003;21773;50.010;19.972;2023-02-26T10:49:13;3.00;3.00;3.00
35654;PMS1003;21773;50.010;19.972;2023-02-26T10:52:30;3.00;3.00;3.00
35654;PMS1003;21773;50.010;19.972;2023-02-26T10:55:37;4.00;4.00;3.25
35654;PMS1003;21773;50.010;19.972;2023-02-26T10:58:43;7.00;6.40;6.00
35654;PMS1003;21773;50.010;19.972;2023-02-26T11:01:47;3.00;3.00;3.00
35654;PMS1003;21773;50.010;19.972;2023-02-26T11:04:54;4.80;4.20;4.00
35654;PMS1003;21773;50.010;19.972;2023-02-26T11:08:10;4.50;3.50;3.25
35654;PMS1003;21773;50.010;19.972;2023-02-26T11:11:36;5.00;5.00;4.25
35654;PMS1003;21773;50.010;19.972;2023-02-26T11:14:43;3.00;3.00;3.00
35654;PMS1003;21773;50.010;19.972;2023-02-26T11:17:52;6.00;6.00;5.50
35654;PMS1003;21773;50.010;19.972;2023-02-26T11:21:00;3.20;3.20;3.00
35654;PMS1003;21773;50.010;19.972;2023-02-26T11:24:08;6.00;6.00;5.00
35654;PMS1003;21773;50.010;19.972;2023-02-26T11:27:16;4.00;4.00;3.40
35654;PMS1003;21773;50.010;19.972;2023-02-26T11:30:24;6.00;6.00;6.00
35654;PMS1003;21773;50.010;19.972;2023-02-26T11:33:33;6.00;5.00;5.00
35654;PMS1003;21773;50.010;19.972;2023-02-26T11:36:41;5.00;5.00;5.00
35654;PMS1003;21773;50.010;19.972;2023-02-26T11:39:46;5.00;5.00;5.00
35654;PMS1003;21773;50.010;19.972;2023-02-26T11:42:57;9.00;8.00;8.00
35654;PMS1003;21773;50.010;19.972;2023-02-26T11:46:02;7.20;7.20;7.00
35654;PMS1003;21773;50.010;19.972;2023-02-26T11:49:07;8.00;8.00;7.40
35654;PMS1003;21773;50.010;19.972;2023-02-26T11:52:19;8.00;7.60;7.00
35654;PMS1003;21773;50.010;19.972;2023-02-26T11:55:26;6.75;6.00;6.00
35654;PMS1003;21773;50.010;19.972;2023-02-26T11:58:34;6.60;6.60;6.40
35654;PMS1003;21773;50.010;19.972;2023-02-26T12:01:39;6.00;6.00;6.00
35654;PMS1003;21773;50.010;19.972;2023-02-26T12:04:44;5.80;5.80;5.00
35654;PMS1003;21773;50.010;19.972;2023-02-26T12:07:52;6.00;6.00;5.00
35654;PMS1003;21773;50.010;19.972;2023-02-26T12:18:09;8.00;7.50;7.00
35654;PMS1003;21773;50.010;19.972;2023-02-26T12:21:51;7.60;7.60;6.60
35654;PMS1003;21773;50.010;19.972;2023-02-26T12:25:17;7.40;7.40;7.00
35654;PMS1003;21773;50.010;19.972;2023-02-26T12:28:36;8.60;8.60;8.00
35654;PMS1003;21773;50.010;19.972;2023-02-26T12:38:51;8.40;8.00;7.60
35654;PMS1003;21773;50.010;19.972;2023-02-26T12:42:07;9.80;9.80;8.80
35654;PMS1003;21773;50.010;19.972;2023-02-26T12:56:03;8.25;8.25;8.00
35654;PMS1003;21773;50.010;19.972;2023-02-26T12:59:24;9.40;9.40;8.40
35654;PMS1003;21773;50.010;19.972;2023-02-26T13:03:02;8.80;8.80;8.20
35654;PMS1003;21773;50.010;19.972;2023-02-26T13:06:40;6.00;6.00;5.60
35654;PMS1003;21773;50.010;19.972;2023-02-26T13:09:58;8.60;8.60;8.60
35654;PMS1003;21773;50.010;19.972;2023-02-26T13:13:20;6.75;6.00;6.00
35654;PMS1003;21773;50.010;19.972;2023-02-26T13:16:38;7.00;7.00;7.00
35654;PMS1003;21773;50.010;19.972;2023-02-26T13:19:51;11.00;10.00;10.00
35654;PMS1003;21773;50.010;19.972;2023-02-26T13:22:58;9.50;9.50;8.50
35654;PMS1003;21773;50.010;19.972;2023-02-26T13:26:05;8.40;7.80;7.00
35654;PMS1003;21773;50.010;19.972;2023-02-26T13:29:13;9.40;9.00;8.40
35654;PMS1003;21773;50.010;19.972;2023-02-26T13:32:22;11.75;11.50;10.75
35654;PMS1003;21773;50.010;19.972;2023-02-26T13:35:29;9.67;9.67;7.67
35654;PMS1003;21773;50.010;19.972;2023-02-26T13:38:43;10.40;10.40;9.40
35654;PMS1003;21773;50.010;19.972;2023-02-26T13:41:56;9.00;9.00;9.00
35654;PMS1003;21773;50.010;19.972;2023-02-26T13:45:17;7.75;7.00;7.00
35654;PMS1003;21773;50.010;19.972;2023-02-26T13:48:32;5.60;5.60;5.60
35654;PMS1003;21773;50.010;19.972;2023-02-26T13:51:45;6.00;5.20;5.00
35654;PMS1003;21773;50.010;19.972;2023-02-26T13:54:50;6.80;5.00;4.80
35654;PMS1003;21773;50.010;19.972;2023-02-26T13:57:53;6.25;6.00;5.25
35654;PMS1003;21773;50.010;19.972;2023-02-26T14:00:58;9.00;9.00;9.00
35654;PMS1003;21773;50.010;19.972;2023-02-26T14:04:22;9.25;9.00;8.50
35654;PMS1003;21773;50.010;19.972;2023-02-26T14:07:45;6.00;6.00;5.60
35654;PMS1003;21773;50.010;19.972;2023-02-26T14:10:56;9.40;9.00;8.40
35654;PMS1003;21773;50.010;19.972;2023-02-26T14:14:05;7.20;6.60;6.20
35654;PMS1003;21773;50.010;19.972;2023-02-26T14:17:18;5.25;5.00;4.75
35654;PMS1003;21773;50.010;19.972;2023-02-26T14:20:34;9.60;9.60;9.00
35654;PMS1003;21773;50.010;19.972;2023-02-26T14:23:38;8.75;8.75;8.75
35654;PMS1003;21773;50.010;19.972;2023-02-26T14:26:44;8.75;8.50;8.50
35654;PMS1003;21773;50.010;19.972;2023-02-26T14:29:57;10.40;9.40;8.80
35654;PMS1003;21773;50.010;19.972;2023-02-26T14:33:06;8.40;7.60;7.60
35654;PMS1003;21773;50.010;19.972;2023-02-26T14:36:16;6.60;6.60;6.60
35654;PMS1003;21773;50.010;19.972;2023-02-26T14:39:24;8.20;8.00;8.00
35654;PMS1003;21773;50.010;19.972;2023-02-26T14:42:32;6.80;6.80;6.00
35654;PMS1003;21773;50.010;19.972;2023-02-26T14:45:38;9.40;9.00;8.60
35654;PMS1003;21773;50.010;19.972;2023-02-26T14:48:43;7.50;7.50;7.00
35654;PMS1003;21773;50.010;19.972;2023-02-26T14:51:50;8.40;6.40;5.40
35654;PMS1003;21773;50.010;19.972;2023-02-26T14:55:14;10.75;9.75;9.25
35654;PMS1003;21773;50.010;19.972;2023-02-26T15:02:04;11.00;10.40;10.00
35654;PMS1003;21773;50.010;19.972;2023-02-26T15:05:31;9.75;7.75;6.75
35654;PMS1003;21773;50.010;19.972;2023-02-26T15:08:47;15.00;14.60;14.00
35654;PMS1003;21773;50.010;19.972;2023-02-26T15:12:05;11.00;10.40;10.00
35654;PMS1003;21773;50.010;19.972;2023-02-26T15:15:23;12.25;11.25;10.50
35654;PMS1003;21773;50.010;19.972;2023-02-26T15:18:42;9.00;8.00;7.00
35654;PMS1003;21773;50.010;19.972;2023-02-26T15:22:01;7.75;6.75;6.00
35654;PMS1003;21773;50.010;19.972;2023-02-26T15:25:26;9.40;8.40;8.00
35654;PMS1003;21773;50.010;19.972;2023-02-26T15:28:32;6.80;6.60;6.60
35654;PMS1003;21773;50.010;19.972;2023-02-26T15:31:40;12.40;11.40;10.40
35654;PMS1003;21773;50.010;19.972;2023-02-26T15:34:45;7.00;7.00;6.00
35654;PMS1003;21773;50.010;19.972;2023-02-26T15:37:50;11.00;10.40;9.40
35654;PMS1003;21773;50.010;19.972;2023-02-26T15:40:58;9.00;8.40;7.40
35654;PMS1003;21773;50.010;19.972;2023-02-26T15:44:05;9.20;8.20;7.20
35654;PMS1003;21773;50.010;19.972;2023-02-26T15:47:11;8.00;7.50;7.00
35654;PMS1003;21773;50.010;19.972;2023-02-26T15:50:18;8.00;8.00;8.00
35654;PMS1003;21773;50.010;19.972;2023-02-26T15:53:26;10.50;9.00;8.50
35654;PMS1003;21773;50.010;19.972;2023-02-26T15:56:34;9.80;8.80;8.00
35654;PMS1003;21773;50.010;19.972;2023-02-26T15:59:42;9.40;8.00;8.00
35654;PMS1003;21773;50.010;19.972;2023-02-26T16:02:47;7.40;7.40;7.00
35654;PMS1003;21773;50.010;19.972;2023-02-26T16:05:52;8.40;8.40;7.40
35654;PMS1003;21773;50.010;19.972;2023-02-26T16:08:57;10.00;8.00;8.00
35654;PMS1003;21773;50.010;19.972;2023-02-26T16:12:04;8.33;8.00;7.00
35654;PMS1003;21773;50.010;19.972;2023-02-26T16:15:11;9.80;9.00;8.20
35654;PMS1003;21773;50.010;19.972;2023-02-26T16:18:17;10.60;10.60;9.60
35654;PMS1003;21773;50.010;19.972;2023-02-26T16:21:27;8.60;8.00;7.00
35654;PMS1003;21773;50.010;19.972;2023-02-26T16:24:33;10.00;9.60;9.40
35654;PMS1003;21773;50.010;19.972;2023-02-26T16:27:38;10.00;9.75;9.00
35654;PMS1003;21773;50.010;19.972;2023-02-26T16:30:43;11.50;11.50;10.50
35654;PMS1003;21773;50.010;19.972;2023-02-26T16:33:55;11.60;11.00;10.00
35654;PMS1003;21773;50.010;19.972;2023-02-26T16:37:09;12.00;12.00;11.00
35654;PMS1003;21773;50.010;19.972;2023-02-26T16:40:16;10.40;10.00;9.00
35654;PMS1003;21773;50.010;19.972;2023-02-26T16:43:33;11.00;11.00;10.50
35654;PMS1003;21773;50.010;19.972;2023-02-26T16:46:50;12.00;11.40;11.00
35654;PMS1003;21773;50.010;19.972;2023-02-26T16:49:54;8.00;7.00;6.00
35654;PMS1003;21773;50.010;19.972;2023-02-26T16:52:58;10.50;10.00;9.00
35654;PMS1003;21773;50.010;19.972;2023-02-26T16:56:03;10.20;10.00;9.00
35654;PMS1003;21773;50.010;19.972;2023-02-26T16:59:12;12.60;11.00;10.60
35654;PMS1003;21773;50.010;19.972;2023-02-26T17:02:19;8.50;8.00;7.00
35654;PMS1003;21773;50.010;19.972;2023-02-26T17:05:26;11.60;8.40;8.00
35654;PMS1003;21773;50.010;19.972;2023-02-26T17:08:34;12.20;12.00;12.00
35654;PMS1003;21773;50.010;19.972;2023-02-26T17:11:43;11.00;10.00;9.00
35654;PMS1003;21773;50.010;19.972;2023-02-26T17:14:53;11.00;11.00;10.00
35654;PMS1003;21773;50.010;19.972;2023-02-26T17:17:59;12.60;11.00;10.00
35654;PMS1003;21773;50.010;19.972;2023-02-26T17:21:03;12.00;11.75;10.00
35654;PMS1003;21773;50.010;19.972;2023-02-26T17:24:08;13.00;13.00;12.00
35654;PMS1003;21773;50.010;19.972;2023-02-26T17:27:20;12.60;11.60;10.60
35654;PMS1003;21773;50.010;19.972;2023-02-26T17:30:30;12.00;11.40;10.00
35654;PMS1003;21773;50.010;19.972;2023-02-26T17:33:34;11.50;11.00;10.00
35654;PMS1003;21773;50.010;19.972;2023-02-26T17:36:39;11.00;11.00;10.00
35654;PMS1003;21773;50.010;19.972;2023-02-26T17:39:43;9.75;8.00;8.00
35654;PMS1003;21773;50.010;19.972;2023-02-26T17:42:46;10.00;9.60;8.60
35654;PMS1003;21773;50.010;19.972;2023-02-26T17:45:51;11.60;10.00;10.00
35654;PMS1003;21773;50.010;19.972;2023-02-26T17:48:55;10.00;10.00;9.20
35654;PMS1003;21773;50.010;19.972;2023-02-26T17:51:58;9.75;9.75;8.75
35654;PMS1003;21773;50.010;19.972;2023-02-26T17:55:02;12.60;12.40;12.00
35654;PMS1003;21773;50.010;19.972;2023-02-26T17:58:05;11.60;10.60;9.60
35654;PMS1003;21773;50.010;19.972;2023-02-26T18:01:13;11.75;11.75;10.75
35654;PMS1003;21773;50.010;19.972;2023-02-26T18:04:17;12.60;12.00;11.20
35654;PMS1003;21773;50.010;19.972;2023-02-26T18:07:21;13.20;12.20;11.80
35654;PMS1003;21773;50.010;19.972;2023-02-26T18:10:26;14.75;14.75;13.75
35654;PMS1003;21773;50.010;19.972;2023-02-26T18:13:30;13.50;12.25;12.00
35654;PMS1003;21773;50.010;19.972;2023-02-26T18:16:36;12.40;11.40;10.40
35654;PMS1003;21773;50.010;19.972;2023-02-26T18:19:41;11.60;10.60;10.00
35654;PMS1003;21773;50.010;19.972;2023-02-26T18:22:44;10.00;10.00;9.00
35654;PMS1003;21773;50.010;19.972;2023-02-26T18:25:49;10.00;10.00;8.25